Terminal Aerodrome Forecast
Issued by NWS

Home | Current Version | Previous Version | Text Only | Print | Product List | Glossary On
Versions: 1 2 3 4 5 6 7 8 9 10 11 12 13 14 15 16 17 18 19 20
648
FTAK31 PAJN 232322
TAFAYA
TAF
PAYA 232322Z 2400/2424 05005KT 4SM -SN OVC035
     FM240200 08005KT P6SM VCSH BKN025 OVC040
     FM240700 06009KT P6SM SCT030 OVC040 WS020/04040KT
     FM241700 07008KT P6SM SCT070 WS020/04040KT
      AMD LTD TO CLD VIS AND WIND=

USA.gov is the U.S. government's official web portal to all federal, state and local government web resources and services.